sensor_id;sensor_type;location;lat;lon;timestamp;P1;durP1;ratioP1;P2;durP2;ratioP2
462;SDS011;218;51.902;9.542;2022-07-23T00:01:44;10.30;;;9.33;;
462;SDS011;218;51.902;9.542;2022-07-23T00:04:12;10.53;;;9.53;;
462;SDS011;218;51.902;9.542;2022-07-23T00:06:42;9.77;;;9.00;;
462;SDS011;218;51.902;9.542;2022-07-23T00:09:09;12.60;;;10.07;;
462;SDS011;218;51.902;9.542;2022-07-23T00:11:36;11.10;;;8.93;;
462;SDS011;218;51.902;9.542;2022-07-23T00:14:03;10.90;;;9.83;;
462;SDS011;218;51.902;9.542;2022-07-23T00:16:31;9.80;;;8.90;;
462;SDS011;218;51.902;9.542;2022-07-23T00:18:58;11.30;;;10.27;;
462;SDS011;218;51.902;9.542;2022-07-23T00:21:27;10.57;;;9.60;;
462;SDS011;218;51.902;9.542;2022-07-23T00:23:54;12.53;;;10.17;;
462;SDS011;218;51.902;9.542;2022-07-23T00:26:21;9.77;;;8.97;;
462;SDS011;218;51.902;9.542;2022-07-23T00:28:49;10.50;;;9.53;;
462;SDS011;218;51.902;9.542;2022-07-23T00:31:25;12.10;;;10.10;;
462;SDS011;218;51.902;9.542;2022-07-23T00:33:54;9.60;;;8.90;;
462;SDS011;218;51.902;9.542;2022-07-23T00:36:22;10.47;;;9.57;;
462;SDS011;218;51.902;9.542;2022-07-23T00:38:49;10.90;;;9.73;;
462;SDS011;218;51.902;9.542;2022-07-23T00:41:16;11.50;;;10.50;;
462;SDS011;218;51.902;9.542;2022-07-23T00:43:43;9.80;;;8.63;;
462;SDS011;218;51.902;9.542;2022-07-23T00:46:10;10.07;;;9.17;;
462;SDS011;218;51.902;9.542;2022-07-23T00:48:39;9.77;;;8.93;;
462;SDS011;218;51.902;9.542;2022-07-23T00:51:08;11.40;;;10.10;;
462;SDS011;218;51.902;9.542;2022-07-23T00:53:37;11.13;;;10.13;;
462;SDS011;218;51.902;9.542;2022-07-23T00:56:04;10.47;;;9.57;;
462;SDS011;218;51.902;9.542;2022-07-23T00:58:32;10.33;;;9.43;;
462;SDS011;218;51.902;9.542;2022-07-23T01:01:01;11.63;;;10.43;;
462;SDS011;218;51.902;9.542;2022-07-23T01:03:28;11.67;;;10.67;;
462;SDS011;218;51.902;9.542;2022-07-23T01:05:55;10.47;;;9.57;;
462;SDS011;218;51.902;9.542;2022-07-23T01:08:25;10.43;;;9.60;;
462;SDS011;218;51.902;9.542;2022-07-23T01:10:52;10.23;;;9.47;;
462;SDS011;218;51.902;9.542;2022-07-23T01:13:19;9.80;;;8.90;;
462;SDS011;218;51.902;9.542;2022-07-23T01:15:46;9.40;;;8.70;;
462;SDS011;218;51.902;9.542;2022-07-23T01:18:13;10.73;;;9.83;;
462;SDS011;218;51.902;9.542;2022-07-23T01:20:40;10.10;;;9.03;;
462;SDS011;218;51.902;9.542;2022-07-23T01:23:09;10.03;;;9.17;;
462;SDS011;218;51.902;9.542;2022-07-23T01:25:36;9.20;;;8.60;;
462;SDS011;218;51.902;9.542;2022-07-23T01:28:03;9.80;;;8.83;;
462;SDS011;218;51.902;9.542;2022-07-23T01:30:30;10.13;;;9.23;;
462;SDS011;218;51.902;9.542;2022-07-23T01:32:57;10.20;;;9.20;;
462;SDS011;218;51.902;9.542;2022-07-23T01:35:24;9.70;;;8.90;;
462;SDS011;218;51.902;9.542;2022-07-23T01:37:51;10.37;;;9.57;;
462;SDS011;218;51.902;9.542;2022-07-23T01:40:20;10.87;;;9.80;;
462;SDS011;218;51.902;9.542;2022-07-23T01:42:47;9.20;;;8.50;;
462;SDS011;218;51.902;9.542;2022-07-23T01:45:14;10.50;;;9.60;;
462;SDS011;218;51.902;9.542;2022-07-23T01:47:41;9.77;;;8.97;;
462;SDS011;218;51.902;9.542;2022-07-23T01:50:08;11.03;;;9.10;;
462;SDS011;218;51.902;9.542;2022-07-23T01:52:41;10.20;;;9.40;;
462;SDS011;218;51.902;9.542;2022-07-23T01:55:27;10.37;;;9.53;;
462;SDS011;218;51.902;9.542;2022-07-23T01:57:54;10.30;;;9.00;;
462;SDS011;218;51.902;9.542;2022-07-23T02:00:21;11.23;;;10.27;;
462;SDS011;218;51.902;9.542;2022-07-23T02:02:48;10.90;;;9.80;;
462;SDS011;218;51.902;9.542;2022-07-23T02:05:15;9.83;;;8.93;;
462;SDS011;218;51.902;9.542;2022-07-23T02:07:42;11.93;;;10.90;;
462;SDS011;218;51.902;9.542;2022-07-23T02:10:09;11.00;;;10.20;;
462;SDS011;218;51.902;9.542;2022-07-23T02:12:37;10.23;;;9.43;;
462;SDS011;218;51.902;9.542;2022-07-23T02:15:05;11.03;;;10.13;;
462;SDS011;218;51.902;9.542;2022-07-23T02:17:33;11.40;;;10.40;;
462;SDS011;218;51.902;9.542;2022-07-23T02:20:00;11.17;;;10.13;;
462;SDS011;218;51.902;9.542;2022-07-23T02:22:27;11.90;;;10.80;;
462;SDS011;218;51.902;9.542;2022-07-23T02:24:54;11.63;;;10.70;;
462;SDS011;218;51.902;9.542;2022-07-23T02:27:21;12.90;;;10.90;;
462;SDS011;218;51.902;9.542;2022-07-23T02:29:49;13.40;;;12.30;;
462;SDS011;218;51.902;9.542;2022-07-23T02:32:17;12.20;;;11.10;;
462;SDS011;218;51.902;9.542;2022-07-23T02:35:06;11.30;;;10.20;;
462;SDS011;218;51.902;9.542;2022-07-23T02:37:33;12.23;;;11.23;;
462;SDS011;218;51.902;9.542;2022-07-23T02:40:00;12.43;;;11.23;;
462;SDS011;218;51.902;9.542;2022-07-23T02:42:27;12.23;;;11.03;;
462;SDS011;218;51.902;9.542;2022-07-23T02:44:56;12.97;;;11.77;;
462;SDS011;218;51.902;9.542;2022-07-23T02:47:23;11.53;;;10.70;;
462;SDS011;218;51.902;9.542;2022-07-23T02:49:50;12.90;;;11.60;;
462;SDS011;218;51.902;9.542;2022-07-23T02:52:17;16.53;;;11.47;;
462;SDS011;218;51.902;9.542;2022-07-23T02:54:44;12.93;;;11.17;;
462;SDS011;218;51.902;9.542;2022-07-23T02:57:11;12.00;;;11.00;;
462;SDS011;218;51.902;9.542;2022-07-23T02:59:38;11.17;;;10.37;;
462;SDS011;218;51.902;9.542;2022-07-23T03:02:06;12.67;;;11.67;;
462;SDS011;218;51.902;9.542;2022-07-23T03:04:34;12.77;;;11.87;;
462;SDS011;218;51.902;9.542;2022-07-23T03:07:01;12.17;;;10.97;;
462;SDS011;218;51.902;9.542;2022-07-23T03:09:27;12.70;;;11.50;;
462;SDS011;218;51.902;9.542;2022-07-23T03:12:08;13.10;;;11.83;;
462;SDS011;218;51.902;9.542;2022-07-23T03:14:59;13.00;;;11.77;;
462;SDS011;218;51.902;9.542;2022-07-23T03:17:27;13.27;;;11.83;;
462;SDS011;218;51.902;9.542;2022-07-23T03:19:54;12.70;;;11.67;;
462;SDS011;218;51.902;9.542;2022-07-23T03:22:22;16.83;;;12.90;;
462;SDS011;218;51.902;9.542;2022-07-23T03:24:49;14.20;;;12.23;;
462;SDS011;218;51.902;9.542;2022-07-23T03:27:22;15.57;;;14.27;;
462;SDS011;218;51.902;9.542;2022-07-23T03:29:50;13.83;;;12.50;;
462;SDS011;218;51.902;9.542;2022-07-23T03:32:17;14.30;;;12.73;;
462;SDS011;218;51.902;9.542;2022-07-23T03:34:46;14.63;;;13.10;;
462;SDS011;218;51.902;9.542;2022-07-23T03:37:14;12.97;;;11.77;;
462;SDS011;218;51.902;9.542;2022-07-23T03:39:41;12.40;;;11.40;;
462;SDS011;218;51.902;9.542;2022-07-23T03:42:08;13.37;;;12.07;;
462;SDS011;218;51.902;9.542;2022-07-23T03:44:35;12.20;;;11.30;;
462;SDS011;218;51.902;9.542;2022-07-23T03:47:03;12.57;;;11.33;;
462;SDS011;218;51.902;9.542;2022-07-23T03:49:31;12.43;;;11.43;;
462;SDS011;218;51.902;9.542;2022-07-23T03:52:00;12.30;;;11.30;;
462;SDS011;218;51.902;9.542;2022-07-23T03:54:27;14.37;;;13.17;;
462;SDS011;218;51.902;9.542;2022-07-23T03:56:54;11.77;;;10.77;;
462;SDS011;218;51.902;9.542;2022-07-23T03:59:21;13.33;;;12.13;;
462;SDS011;218;51.902;9.542;2022-07-23T04:01:48;12.13;;;11.20;;
462;SDS011;218;51.902;9.542;2022-07-23T04:04:15;13.40;;;12.00;;
462;SDS011;218;51.902;9.542;2022-07-23T04:06:42;12.10;;;11.10;;
462;SDS011;218;51.902;9.542;2022-07-23T04:09:11;12.27;;;11.27;;
462;SDS011;218;51.902;9.542;2022-07-23T04:11:38;13.60;;;12.40;;
462;SDS011;218;51.902;9.542;2022-07-23T04:14:05;13.50;;;12.10;;
462;SDS011;218;51.902;9.542;2022-07-23T04:16:32;14.43;;;12.70;;
462;SDS011;218;51.902;9.542;2022-07-23T04:18:59;12.07;;;10.97;;
462;SDS011;218;51.902;9.542;2022-07-23T04:21:26;13.10;;;11.83;;
462;SDS011;218;51.902;9.542;2022-07-23T04:23:53;12.30;;;11.23;;
462;SDS011;218;51.902;9.542;2022-07-23T04:26:22;11.83;;;10.93;;
462;SDS011;218;51.902;9.542;2022-07-23T04:28:49;12.20;;;11.00;;
462;SDS011;218;51.902;9.542;2022-07-23T04:31:15;14.50;;;11.80;;
462;SDS011;218;51.902;9.542;2022-07-23T04:33:42;14.23;;;11.73;;
462;SDS011;218;51.902;9.542;2022-07-23T04:36:10;12.17;;;11.13;;
462;SDS011;218;51.902;9.542;2022-07-23T04:38:39;12.23;;;11.20;;
462;SDS011;218;51.902;9.542;2022-07-23T04:41:06;12.03;;;11.03;;
462;SDS011;218;51.902;9.542;2022-07-23T04:43:35;13.27;;;12.07;;
462;SDS011;218;51.902;9.542;2022-07-23T04:46:01;13.53;;;12.27;;
462;SDS011;218;51.902;9.542;2022-07-23T04:48:29;13.77;;;12.60;;
462;SDS011;218;51.902;9.542;2022-07-23T04:50:56;13.40;;;12.10;;
462;SDS011;218;51.902;9.542;2022-07-23T04:53:22;13.50;;;12.30;;
462;SDS011;218;51.902;9.542;2022-07-23T04:55:50;14.23;;;12.83;;
462;SDS011;218;51.902;9.542;2022-07-23T04:58:17;14.53;;;13.00;;
462;SDS011;218;51.902;9.542;2022-07-23T05:00:45;14.10;;;12.70;;
462;SDS011;218;51.902;9.542;2022-07-23T05:03:12;14.40;;;12.60;;
462;SDS011;218;51.902;9.542;2022-07-23T05:05:39;14.23;;;12.93;;
462;SDS011;218;51.902;9.542;2022-07-23T05:08:06;12.23;;;11.10;;
462;SDS011;218;51.902;9.542;2022-07-23T05:10:33;14.40;;;12.90;;
462;SDS011;218;51.902;9.542;2022-07-23T05:13:00;13.37;;;12.17;;
462;SDS011;218;51.902;9.542;2022-07-23T05:15:27;13.50;;;12.30;;
462;SDS011;218;51.902;9.542;2022-07-23T05:17:56;12.87;;;11.80;;
462;SDS011;218;51.902;9.542;2022-07-23T05:20:23;13.67;;;12.47;;
462;SDS011;218;51.902;9.542;2022-07-23T05:22:51;12.83;;;11.73;;
462;SDS011;218;51.902;9.542;2022-07-23T05:25:18;14.40;;;13.00;;
462;SDS011;218;51.902;9.542;2022-07-23T05:27:45;14.70;;;13.00;;
462;SDS011;218;51.902;9.542;2022-07-23T05:30:12;13.13;;;12.03;;
462;SDS011;218;51.902;9.542;2022-07-23T05:32:39;12.27;;;11.33;;
462;SDS011;218;51.902;9.542;2022-07-23T05:35:08;13.07;;;11.87;;
462;SDS011;218;51.902;9.542;2022-07-23T05:37:35;13.40;;;12.30;;
462;SDS011;218;51.902;9.542;2022-07-23T05:40:02;16.10;;;14.63;;
462;SDS011;218;51.902;9.542;2022-07-23T05:42:31;16.90;;;15.40;;
462;SDS011;218;51.902;9.542;2022-07-23T05:45:00;18.30;;;16.63;;
462;SDS011;218;51.902;9.542;2022-07-23T05:47:28;18.03;;;16.27;;
462;SDS011;218;51.902;9.542;2022-07-23T05:49:55;18.77;;;17.20;;
462;SDS011;218;51.902;9.542;2022-07-23T05:52:23;19.83;;;17.93;;
462;SDS011;218;51.902;9.542;2022-07-23T05:54:50;18.17;;;16.67;;
462;SDS011;218;51.902;9.542;2022-07-23T05:57:17;22.07;;;17.60;;
462;SDS011;218;51.902;9.542;2022-07-23T05:59:44;17.27;;;15.77;;
462;SDS011;218;51.902;9.542;2022-07-23T06:02:11;18.37;;;16.73;;
462;SDS011;218;51.902;9.542;2022-07-23T06:04:38;18.13;;;16.37;;
462;SDS011;218;51.902;9.542;2022-07-23T06:07:05;18.17;;;16.60;;
462;SDS011;218;51.902;9.542;2022-07-23T06:09:34;17.00;;;15.63;;
462;SDS011;218;51.902;9.542;2022-07-23T06:12:01;17.30;;;15.70;;
462;SDS011;218;51.902;9.542;2022-07-23T06:14:28;17.87;;;16.03;;
462;SDS011;218;51.902;9.542;2022-07-23T06:16:55;17.00;;;15.60;;
462;SDS011;218;51.902;9.542;2022-07-23T06:19:22;17.30;;;15.50;;
462;SDS011;218;51.902;9.542;2022-07-23T06:21:49;17.87;;;16.07;;
462;SDS011;218;51.902;9.542;2022-07-23T06:24:16;17.70;;;16.17;;
462;SDS011;218;51.902;9.542;2022-07-23T06:26:45;17.90;;;16.20;;
462;SDS011;218;51.902;9.542;2022-07-23T06:29:12;17.10;;;15.63;;
462;SDS011;218;51.902;9.542;2022-07-23T06:31:39;16.13;;;14.63;;
462;SDS011;218;51.902;9.542;2022-07-23T06:34:06;18.30;;;16.60;;
462;SDS011;218;51.902;9.542;2022-07-23T06:36:33;15.87;;;14.47;;
462;SDS011;218;51.902;9.542;2022-07-23T06:39:00;17.53;;;15.73;;
462;SDS011;218;51.902;9.542;2022-07-23T06:41:27;16.03;;;14.73;;
462;SDS011;218;51.902;9.542;2022-07-23T06:43:56;17.20;;;15.60;;
462;SDS011;218;51.902;9.542;2022-07-23T06:46:22;14.17;;;13.17;;
462;SDS011;218;51.902;9.542;2022-07-23T06:48:50;13.70;;;12.50;;
462;SDS011;218;51.902;9.542;2022-07-23T06:51:17;14.77;;;13.43;;
462;SDS011;218;51.902;9.542;2022-07-23T06:53:44;13.73;;;12.63;;
462;SDS011;218;51.902;9.542;2022-07-23T06:56:12;15.10;;;13.80;;
462;SDS011;218;51.902;9.542;2022-07-23T06:58:39;14.50;;;13.00;;
462;SDS011;218;51.902;9.542;2022-07-23T07:01:07;14.33;;;13.23;;
462;SDS011;218;51.902;9.542;2022-07-23T07:03:34;14.63;;;13.23;;
462;SDS011;218;51.902;9.542;2022-07-23T07:06:01;13.80;;;12.40;;
462;SDS011;218;51.902;9.542;2022-07-23T07:08:28;14.33;;;13.23;;
462;SDS011;218;51.902;9.542;2022-07-23T07:10:55;14.70;;;13.30;;
462;SDS011;218;51.902;9.542;2022-07-23T07:13:22;15.60;;;14.13;;
462;SDS011;218;51.902;9.542;2022-07-23T07:15:49;13.17;;;12.17;;
462;SDS011;218;51.902;9.542;2022-07-23T07:18:18;13.20;;;12.10;;
462;SDS011;218;51.902;9.542;2022-07-23T07:20:45;12.20;;;11.10;;
462;SDS011;218;51.902;9.542;2022-07-23T07:23:12;12.00;;;11.00;;
462;SDS011;218;51.902;9.542;2022-07-23T07:25:39;10.70;;;9.90;;
462;SDS011;218;51.902;9.542;2022-07-23T07:28:06;11.83;;;10.83;;
462;SDS011;218;51.902;9.542;2022-07-23T07:30:33;13.07;;;10.70;;
462;SDS011;218;51.902;9.542;2022-07-23T07:33:00;14.10;;;13.00;;
462;SDS011;218;51.902;9.542;2022-07-23T07:35:29;11.07;;;10.17;;
462;SDS011;218;51.902;9.542;2022-07-23T07:37:57;12.10;;;11.00;;
462;SDS011;218;51.902;9.542;2022-07-23T07:40:25;12.13;;;11.17;;
462;SDS011;218;51.902;9.542;2022-07-23T07:42:53;10.20;;;9.43;;
462;SDS011;218;51.902;9.542;2022-07-23T07:45:22;10.83;;;9.90;;
462;SDS011;218;51.902;9.542;2022-07-23T07:47:50;10.37;;;9.40;;
462;SDS011;218;51.902;9.542;2022-07-23T07:50:18;11.27;;;10.20;;
462;SDS011;218;51.902;9.542;2022-07-23T07:52:46;10.80;;;9.83;;
462;SDS011;218;51.902;9.542;2022-07-23T07:55:14;10.27;;;9.47;;
462;SDS011;218;51.902;9.542;2022-07-23T07:57:41;10.30;;;9.40;;
462;SDS011;218;51.902;9.542;2022-07-23T08:00:09;10.70;;;9.80;;
462;SDS011;218;51.902;9.542;2022-07-23T08:02:40;11.17;;;10.00;;
462;SDS011;218;51.902;9.542;2022-07-23T08:05:08;11.13;;;10.30;;
462;SDS011;218;51.902;9.542;2022-07-23T08:07:36;11.17;;;10.20;;
462;SDS011;218;51.902;9.542;2022-07-23T08:10:07;10.30;;;9.30;;
462;SDS011;218;51.902;9.542;2022-07-23T08:12:39;10.87;;;9.90;;
462;SDS011;218;51.902;9.542;2022-07-23T08:15:08;12.93;;;11.83;;
462;SDS011;218;51.902;9.542;2022-07-23T08:17:35;14.70;;;10.47;;
462;SDS011;218;51.902;9.542;2022-07-23T08:20:03;12.03;;;10.50;;
462;SDS011;218;51.902;9.542;2022-07-23T08:22:44;10.60;;;9.57;;
462;SDS011;218;51.902;9.542;2022-07-23T08:28:19;10.40;;;9.50;;
462;SDS011;218;51.902;9.542;2022-07-23T08:30:46;10.10;;;9.20;;
462;SDS011;218;51.902;9.542;2022-07-23T08:33:13;9.03;;;8.23;;
462;SDS011;218;51.902;9.542;2022-07-23T08:35:42;10.77;;;9.97;;
462;SDS011;218;51.902;9.542;2022-07-23T08:38:11;8.60;;;7.90;;
462;SDS011;218;51.902;9.542;2022-07-23T08:40:40;9.40;;;8.50;;
462;SDS011;218;51.902;9.542;2022-07-23T08:43:10;9.00;;;8.30;;
462;SDS011;218;51.902;9.542;2022-07-23T08:45:40;9.10;;;8.40;;
462;SDS011;218;51.902;9.542;2022-07-23T08:48:08;9.30;;;8.60;;
462;SDS011;218;51.902;9.542;2022-07-23T08:50:39;7.90;;;7.40;;
462;SDS011;218;51.902;9.542;2022-07-23T08:53:09;9.70;;;8.70;;
462;SDS011;218;51.902;9.542;2022-07-23T08:55:37;8.60;;;7.87;;
462;SDS011;218;51.902;9.542;2022-07-23T08:58:04;8.13;;;7.33;;
462;SDS011;218;51.902;9.542;2022-07-23T09:00:32;7.73;;;7.03;;
462;SDS011;218;51.902;9.542;2022-07-23T09:03:00;9.67;;;6.97;;
462;SDS011;218;51.902;9.542;2022-07-23T09:05:28;7.60;;;6.90;;
462;SDS011;218;51.902;9.542;2022-07-23T09:08:03;7.30;;;6.70;;
462;SDS011;218;51.902;9.542;2022-07-23T09:10:48;8.80;;;7.80;;
462;SDS011;218;51.902;9.542;2022-07-23T09:13:23;8.73;;;7.90;;
462;SDS011;218;51.902;9.542;2022-07-23T09:15:52;7.97;;;7.47;;
462;SDS011;218;51.902;9.542;2022-07-23T09:18:30;6.63;;;6.20;;
462;SDS011;218;51.902;9.542;2022-07-23T09:21:08;6.73;;;6.23;;
462;SDS011;218;51.902;9.542;2022-07-23T09:23:48;9.03;;;6.37;;
462;SDS011;218;51.902;9.542;2022-07-23T09:26:21;6.27;;;5.77;;
462;SDS011;218;51.902;9.542;2022-07-23T09:28:51;8.57;;;5.73;;
462;SDS011;218;51.902;9.542;2022-07-23T09:31:21;6.97;;;5.90;;
462;SDS011;218;51.902;9.542;2022-07-23T09:33:51;6.77;;;6.27;;
462;SDS011;218;51.902;9.542;2022-07-23T09:36:32;5.73;;;5.20;;
462;SDS011;218;51.902;9.542;2022-07-23T09:38:59;5.87;;;5.47;;
462;SDS011;218;51.902;9.542;2022-07-23T09:41:27;6.63;;;6.10;;
462;SDS011;218;51.902;9.542;2022-07-23T09:44:06;6.70;;;5.87;;
462;SDS011;218;51.902;9.542;2022-07-23T09:46:34;5.67;;;5.17;;
462;SDS011;218;51.902;9.542;2022-07-23T09:49:09;4.60;;;4.30;;
462;SDS011;218;51.902;9.542;2022-07-23T09:51:43;6.60;;;4.87;;
462;SDS011;218;51.902;9.542;2022-07-23T09:54:28;6.83;;;6.13;;
462;SDS011;218;51.902;9.542;2022-07-23T09:56:59;5.33;;;4.93;;
462;SDS011;218;51.902;9.542;2022-07-23T09:59:33;6.23;;;5.67;;
462;SDS011;218;51.902;9.542;2022-07-23T10:02:03;4.97;;;4.57;;
462;SDS011;218;51.902;9.542;2022-07-23T10:04:33;7.37;;;5.43;;
462;SDS011;218;51.902;9.542;2022-07-23T10:07:01;5.40;;;4.90;;
462;SDS011;218;51.902;9.542;2022-07-23T10:09:30;6.23;;;5.40;;
462;SDS011;218;51.902;9.542;2022-07-23T10:11:59;5.13;;;4.70;;
462;SDS011;218;51.902;9.542;2022-07-23T10:14:34;5.17;;;4.77;;
462;SDS011;218;51.902;9.542;2022-07-23T10:17:03;4.60;;;4.20;;
462;SDS011;218;51.902;9.542;2022-07-23T10:19:30;4.93;;;4.60;;
462;SDS011;218;51.902;9.542;2022-07-23T10:21:59;4.83;;;4.40;;
462;SDS011;218;51.902;9.542;2022-07-23T10:24:30;6.87;;;5.43;;
462;SDS011;218;51.902;9.542;2022-07-23T10:27:12;5.83;;;5.33;;
462;SDS011;218;51.902;9.542;2022-07-23T10:30:02;5.37;;;4.17;;
462;SDS011;218;51.902;9.542;2022-07-23T10:32:36;21.93;;;20.00;;
462;SDS011;218;51.902;9.542;2022-07-23T10:35:13;8.80;;;8.03;;
462;SDS011;218;51.902;9.542;2022-07-23T10:37:53;9.33;;;8.73;;
462;SDS011;218;51.902;9.542;2022-07-23T10:40:26;8.03;;;7.33;;
462;SDS011;218;51.902;9.542;2022-07-23T10:42:54;5.20;;;4.80;;
462;SDS011;218;51.902;9.542;2022-07-23T10:45:30;6.50;;;5.90;;
462;SDS011;218;51.902;9.542;2022-07-23T10:48:11;4.80;;;4.40;;
462;SDS011;218;51.902;9.542;2022-07-23T10:50:40;4.50;;;3.90;;
462;SDS011;218;51.902;9.542;2022-07-23T10:53:10;4.20;;;3.80;;
462;SDS011;218;51.902;9.542;2022-07-23T10:55:45;4.43;;;4.03;;
462;SDS011;218;51.902;9.542;2022-07-23T10:58:18;3.90;;;3.50;;
462;SDS011;218;51.902;9.542;2022-07-23T11:00:47;3.80;;;3.50;;
462;SDS011;218;51.902;9.542;2022-07-23T11:03:35;4.63;;;4.23;;
462;SDS011;218;51.902;9.542;2022-07-23T11:06:24;4.93;;;4.00;;
462;SDS011;218;51.902;9.542;2022-07-23T11:09:38;3.87;;;3.67;;
462;SDS011;218;51.902;9.542;2022-07-23T11:15:04;5.30;;;3.60;;
462;SDS011;218;51.902;9.542;2022-07-23T11:17:34;3.70;;;3.40;;
462;SDS011;218;51.902;9.542;2022-07-23T11:22:57;4.80;;;3.40;;
462;SDS011;218;51.902;9.542;2022-07-23T11:25:30;4.43;;;4.13;;
462;SDS011;218;51.902;9.542;2022-07-23T11:28:11;7.00;;;3.90;;
462;SDS011;218;51.902;9.542;2022-07-23T11:30:43;3.93;;;3.60;;
462;SDS011;218;51.902;9.542;2022-07-23T11:33:18;4.50;;;4.20;;
462;SDS011;218;51.902;9.542;2022-07-23T11:35:48;3.47;;;3.17;;
462;SDS011;218;51.902;9.542;2022-07-23T11:38:17;5.00;;;4.10;;
462;SDS011;218;51.902;9.542;2022-07-23T11:40:52;3.60;;;3.30;;
462;SDS011;218;51.902;9.542;2022-07-23T11:43:21;4.10;;;3.80;;
462;SDS011;218;51.902;9.542;2022-07-23T11:45:49;3.87;;;3.60;;
462;SDS011;218;51.902;9.542;2022-07-23T11:48:18;4.23;;;3.87;;
462;SDS011;218;51.902;9.542;2022-07-23T11:50:46;3.77;;;3.57;;
462;SDS011;218;51.902;9.542;2022-07-23T11:53:15;4.07;;;3.53;;
462;SDS011;218;51.902;9.542;2022-07-23T11:55:48;3.70;;;3.50;;
462;SDS011;218;51.902;9.542;2022-07-23T11:58:17;4.50;;;3.50;;
462;SDS011;218;51.902;9.542;2022-07-23T12:00:45;4.10;;;3.80;;
462;SDS011;218;51.902;9.542;2022-07-23T12:03:12;4.10;;;3.80;;
462;SDS011;218;51.902;9.542;2022-07-23T12:05:40;3.73;;;3.43;;
462;SDS011;218;51.902;9.542;2022-07-23T12:08:07;3.43;;;3.23;;
462;SDS011;218;51.902;9.542;2022-07-23T12:10:36;3.77;;;3.47;;
462;SDS011;218;51.902;9.542;2022-07-23T12:13:06;3.97;;;3.77;;
462;SDS011;218;51.902;9.542;2022-07-23T12:15:36;4.30;;;4.00;;
462;SDS011;218;51.902;9.542;2022-07-23T12:18:05;4.60;;;4.20;;
462;SDS011;218;51.902;9.542;2022-07-23T12:20:34;4.27;;;3.97;;
462;SDS011;218;51.902;9.542;2022-07-23T12:23:02;5.53;;;3.53;;
462;SDS011;218;51.902;9.542;2022-07-23T12:25:32;4.60;;;4.20;;
462;SDS011;218;51.902;9.542;2022-07-23T12:28:01;4.20;;;3.80;;
462;SDS011;218;51.902;9.542;2022-07-23T12:30:32;3.83;;;3.63;;
462;SDS011;218;51.902;9.542;2022-07-23T12:33:01;4.50;;;4.10;;
462;SDS011;218;51.902;9.542;2022-07-23T12:35:30;5.13;;;4.80;;
462;SDS011;218;51.902;9.542;2022-07-23T12:38:03;4.97;;;4.57;;
462;SDS011;218;51.902;9.542;2022-07-23T12:40:33;4.90;;;4.50;;
462;SDS011;218;51.902;9.542;2022-07-23T12:43:03;4.07;;;3.87;;
462;SDS011;218;51.902;9.542;2022-07-23T12:48:22;5.20;;;4.90;;
462;SDS011;218;51.902;9.542;2022-07-23T12:50:51;5.83;;;5.53;;
462;SDS011;218;51.902;9.542;2022-07-23T12:53:21;4.43;;;4.23;;
462;SDS011;218;51.902;9.542;2022-07-23T12:55:50;6.67;;;4.77;;
462;SDS011;218;51.902;9.542;2022-07-23T12:58:23;5.13;;;4.40;;
462;SDS011;218;51.902;9.542;2022-07-23T13:00:55;4.93;;;4.53;;
462;SDS011;218;51.902;9.542;2022-07-23T13:03:26;5.10;;;4.80;;
462;SDS011;218;51.902;9.542;2022-07-23T13:06:04;4.67;;;4.37;;
462;SDS011;218;51.902;9.542;2022-07-23T13:08:33;4.33;;;4.13;;
462;SDS011;218;51.902;9.542;2022-07-23T13:11:05;5.20;;;4.90;;
462;SDS011;218;51.902;9.542;2022-07-23T13:13:33;4.60;;;4.40;;
462;SDS011;218;51.902;9.542;2022-07-23T13:16:03;4.50;;;4.30;;
462;SDS011;218;51.902;9.542;2022-07-23T13:18:31;4.50;;;4.10;;
462;SDS011;218;51.902;9.542;2022-07-23T13:20:58;4.93;;;4.63;;
462;SDS011;218;51.902;9.542;2022-07-23T13:23:26;4.53;;;4.23;;
462;SDS011;218;51.902;9.542;2022-07-23T13:25:53;4.83;;;4.40;;
462;SDS011;218;51.902;9.542;2022-07-23T13:28:21;4.97;;;4.67;;
462;SDS011;218;51.902;9.542;2022-07-23T13:30:49;4.40;;;4.10;;
462;SDS011;218;51.902;9.542;2022-07-23T13:33:18;4.37;;;4.07;;
462;SDS011;218;51.902;9.542;2022-07-23T13:35:46;4.40;;;4.10;;
462;SDS011;218;51.902;9.542;2022-07-23T13:38:15;5.30;;;5.03;;
462;SDS011;218;51.902;9.542;2022-07-23T13:40:43;4.97;;;4.57;;
462;SDS011;218;51.902;9.542;2022-07-23T13:43:13;4.90;;;4.50;;
462;SDS011;218;51.902;9.542;2022-07-23T13:45:41;4.07;;;3.87;;
462;SDS011;218;51.902;9.542;2022-07-23T13:48:09;5.00;;;4.70;;
462;SDS011;218;51.902;9.542;2022-07-23T13:50:39;4.50;;;4.10;;
462;SDS011;218;51.902;9.542;2022-07-23T13:53:08;4.50;;;4.30;;
462;SDS011;218;51.902;9.542;2022-07-23T13:55:37;5.30;;;4.80;;
462;SDS011;218;51.902;9.542;2022-07-23T13:58:06;4.60;;;4.17;;
462;SDS011;218;51.902;9.542;2022-07-23T14:00:35;4.50;;;4.30;;
462;SDS011;218;51.902;9.542;2022-07-23T14:03:03;5.07;;;4.67;;
462;SDS011;218;51.902;9.542;2022-07-23T14:05:31;5.23;;;4.80;;
462;SDS011;218;51.902;9.542;2022-07-23T14:08:00;4.17;;;3.97;;
462;SDS011;218;51.902;9.542;2022-07-23T14:10:27;5.03;;;4.83;;
462;SDS011;218;51.902;9.542;2022-07-23T14:12:54;4.73;;;4.40;;
462;SDS011;218;51.902;9.542;2022-07-23T14:15:23;4.60;;;4.30;;
462;SDS011;218;51.902;9.542;2022-07-23T14:17:51;4.20;;;3.90;;
462;SDS011;218;51.902;9.542;2022-07-23T14:20:20;4.77;;;4.37;;
462;SDS011;218;51.902;9.542;2022-07-23T14:22:48;5.83;;;4.57;;
462;SDS011;218;51.902;9.542;2022-07-23T14:25:17;4.40;;;4.10;;
462;SDS011;218;51.902;9.542;2022-07-23T14:27:44;4.78;;;4.28;;
462;SDS011;218;51.902;9.542;2022-07-23T14:30:12;3.80;;;3.60;;
462;SDS011;218;51.902;9.542;2022-07-23T14:32:41;4.60;;;4.30;;
462;SDS011;218;51.902;9.542;2022-07-23T14:35:08;4.20;;;4.00;;
462;SDS011;218;51.902;9.542;2022-07-23T14:37:35;4.40;;;4.20;;
462;SDS011;218;51.902;9.542;2022-07-23T14:40:03;3.93;;;3.73;;
462;SDS011;218;51.902;9.542;2022-07-23T14:42:32;4.37;;;4.07;;
462;SDS011;218;51.902;9.542;2022-07-23T14:44:59;4.50;;;4.20;;
462;SDS011;218;51.902;9.542;2022-07-23T14:47:26;3.80;;;3.60;;
462;SDS011;218;51.902;9.542;2022-07-23T14:49:53;4.40;;;4.13;;
462;SDS011;218;51.902;9.542;2022-07-23T14:52:20;7.60;;;4.60;;
462;SDS011;218;51.902;9.542;2022-07-23T14:54:47;3.77;;;3.53;;
462;SDS011;218;51.902;9.542;2022-07-23T14:57:14;3.60;;;3.40;;
462;SDS011;218;51.902;9.542;2022-07-23T14:59:42;3.80;;;3.60;;
462;SDS011;218;51.902;9.542;2022-07-23T15:02:10;4.67;;;4.37;;
462;SDS011;218;51.902;9.542;2022-07-23T15:04:37;4.33;;;4.13;;
462;SDS011;218;51.902;9.542;2022-07-23T15:07:05;3.90;;;3.70;;
462;SDS011;218;51.902;9.542;2022-07-23T15:09:32;4.00;;;3.80;;
462;SDS011;218;51.902;9.542;2022-07-23T15:11:59;3.77;;;3.57;;
462;SDS011;218;51.902;9.542;2022-07-23T15:14:26;3.90;;;3.50;;
462;SDS011;218;51.902;9.542;2022-07-23T15:16:54;4.00;;;3.70;;
462;SDS011;218;51.902;9.542;2022-07-23T15:19:21;4.20;;;4.00;;
462;SDS011;218;51.902;9.542;2022-07-23T15:21:48;3.50;;;3.30;;
462;SDS011;218;51.902;9.542;2022-07-23T15:24:15;3.90;;;3.70;;
462;SDS011;218;51.902;9.542;2022-07-23T15:26:42;3.93;;;3.63;;
462;SDS011;218;51.902;9.542;2022-07-23T15:29:10;4.17;;;3.90;;
462;SDS011;218;51.902;9.542;2022-07-23T15:31:36;3.80;;;3.60;;
462;SDS011;218;51.902;9.542;2022-07-23T15:34:05;6.03;;;3.40;;
462;SDS011;218;51.902;9.542;2022-07-23T15:36:32;4.10;;;3.90;;
462;SDS011;218;51.902;9.542;2022-07-23T15:38:59;4.40;;;4.20;;
462;SDS011;218;51.902;9.542;2022-07-23T15:41:26;3.60;;;3.40;;
462;SDS011;218;51.902;9.542;2022-07-23T15:43:53;4.00;;;3.80;;
462;SDS011;218;51.902;9.542;2022-07-23T15:46:21;4.33;;;4.07;;
462;SDS011;218;51.902;9.542;2022-07-23T15:48:49;6.53;;;4.10;;
462;SDS011;218;51.902;9.542;2022-07-23T15:51:17;4.10;;;3.80;;
462;SDS011;218;51.902;9.542;2022-07-23T15:53:44;4.60;;;3.60;;
462;SDS011;218;51.902;9.542;2022-07-23T15:56:12;4.33;;;4.13;;